Time;durP1;ratioP1;P1;durP2;ratioP2;P2;SDS_P1;SDS_P2;PMS_P1;PMS_P2;Temp;Humidity;BMP_temperature;BMP_pressure;BME280_temperature;BME280_humidity;BME280_pressure;Samples;Min_cycle;Max_cycle;Signal;HPM_P1;HPM_P2
2022/04/25 03:01:14;;;;;;;27.27;12.30;;;8.10;99.90;;;;;;5657162;23;20475;-82
2022/04/25 03:03:39;;;;;;;27.50;13.27;;;8.00;99.90;;;;;;5015944;28;20042;-82
2022/04/25 03:06:08;;;;;;;29.80;12.88;;;7.90;99.90;;;;;;4999591;28;20076;-83
2022/04/25 03:08:35;;;;;;;23.73;12.75;;;7.90;99.90;;;;;;5015974;28;20060;-83
2022/04/25 03:11:07;;;;;;;24.15;13.23;;;7.90;99.90;;;;;;5015662;28;20045;-83
2022/04/25 03:13:34;;;;;;;25.88;12.95;;;7.90;99.90;;;;;;5015824;28;20116;-82
2022/04/25 03:16:01;;;;;;;25.25;13.30;;;7.80;99.90;;;;;;5015519;28;20081;-83
2022/04/25 03:18:29;;;;;;;25.98;13.27;;;7.80;99.90;;;;;;5015673;28;20062;-83
2022/04/25 03:20:55;;;;;;;24.10;13.32;;;7.70;99.90;;;;;;5015574;28;20057;-83
2022/04/25 03:23:22;;;;;;;29.40;13.68;;;7.70;99.90;;;;;;5017273;28;20030;-82
2022/04/25 03:25:48;;;;;;;24.90;12.85;;;7.70;99.90;;;;;;5015269;28;20121;-83
2022/04/25 03:28:14;;;;;;;24.23;12.95;;;7.70;99.90;;;;;;5015537;28;20125;-81
2022/04/25 03:30:41;;;;;;;27.33;14.13;;;7.70;99.90;;;;;;5014821;28;20042;-81
2022/04/25 03:33:10;;;;;;;25.10;13.27;;;7.70;99.90;;;;;;5015527;28;20061;-82
2022/04/25 03:35:37;;;;;;;29.20;13.38;;;7.60;99.90;;;;;;4998838;28;20144;-83
2022/04/25 03:38:02;;;;;;;32.38;15.93;;;7.60;99.90;;;;;;4999047;28;20044;-82
2022/04/25 03:40:28;;;;;;;31.88;15.82;;;7.60;99.90;;;;;;5016879;28;20132;-83
2022/04/25 03:42:57;;;;;;;32.05;15.98;;;7.60;99.90;;;;;;5016304;28;20038;-81
2022/04/25 03:45:23;;;;;;;32.85;16.35;;;7.60;99.90;;;;;;5015105;28;20046;-83
2022/04/25 03:47:49;;;;;;;29.20;15.27;;;7.60;99.90;;;;;;5015228;28;20103;-81
2022/04/25 03:50:16;;;;;;;28.88;15.35;;;7.60;99.90;;;;;;5015376;28;20042;-81
2022/04/25 03:52:43;;;;;;;30.33;14.52;;;7.70;99.90;;;;;;5015831;28;20044;-81
2022/04/25 03:57:56;;;;;;;30.20;14.77;;;7.70;99.90;;;;;;5015142;28;20046;-83
2022/04/25 04:00:22;;;;;;;30.75;15.75;;;7.70;99.90;;;;;;5016151;28;20100;-83
2022/04/25 04:02:48;;;;;;;30.92;15.38;;;7.70;99.90;;;;;;4998045;28;20121;-81
2022/04/25 04:05:15;;;;;;;33.25;16.90;;;7.80;99.90;;;;;;5016205;28;20069;-81
2022/04/25 04:07:41;;;;;;;38.65;17.90;;;7.70;99.90;;;;;;5015163;28;20393;-82
2022/04/25 04:10:08;;;;;;;50.85;22.45;;;7.70;99.90;;;;;;5014838;28;20045;-82
2022/04/25 04:12:36;;;;;;;46.15;23.10;;;7.70;99.90;;;;;;4998474;28;20069;-83
2022/04/25 04:15:06;;;;;;;38.60;18.00;;;7.60;99.90;;;;;;5014764;28;20042;-84
2022/04/25 04:17:36;;;;;;;31.08;17.42;;;7.70;99.90;;;;;;5014589;28;20037;-82
2022/04/25 04:20:03;;;;;;;32.22;16.15;;;7.70;99.90;;;;;;5014285;28;20038;-83
2022/04/25 04:22:32;;;;;;;27.77;15.18;;;7.70;99.90;;;;;;5014307;28;20084;-83
2022/04/25 04:25:10;;;;;;;23.77;14.65;;;7.70;99.90;;;;;;5014204;28;20038;-82
2022/04/25 04:27:36;;;;;;;27.70;15.20;;;7.70;99.90;;;;;;5014421;28;20038;-83
2022/04/25 04:30:07;;;;;;;28.33;14.35;;;7.70;99.90;;;;;;5015895;28;20038;-82
2022/04/25 04:32:34;;;;;;;27.75;14.32;;;7.70;99.90;;;;;;5014098;28;20104;-81
2022/04/25 04:35:01;;;;;;;29.08;14.75;;;7.80;99.90;;;;;;5013940;28;20048;-81
2022/04/25 04:37:33;;;;;;;32.00;15.10;;;7.80;99.90;;;;;;5014018;28;20041;-81
2022/04/25 04:42:44;;;;;;;28.13;15.10;;;7.80;99.90;;;;;;5014077;28;20041;-84
2022/04/25 04:45:13;;;;;;;31.13;15.60;;;7.80;99.90;;;;;;5013864;28;20438;-82
2022/04/25 04:47:40;;;;;;;27.77;13.57;;;7.90;99.90;;;;;;5013415;28;20048;-81
2022/04/25 04:50:10;;;;;;;28.60;15.43;;;7.90;99.90;;;;;;5013584;28;20508;-82
2022/04/25 04:52:35;;;;;;;28.30;14.40;;;7.90;99.90;;;;;;5013502;28;20034;-82
2022/04/25 04:55:01;;;;;;;26.77;15.50;;;7.90;99.90;;;;;;5015142;28;20030;-82
2022/04/25 04:57:27;;;;;;;26.80;15.18;;;7.90;99.90;;;;;;5013885;28;20049;-82
2022/04/25 04:59:52;;;;;;;28.75;14.85;;;7.90;99.90;;;;;;4997352;28;20156;-82
2022/04/25 05:02:18;;;;;;;24.20;13.90;;;7.90;99.90;;;;;;4997481;28;20040;-81
2022/04/25 05:04:44;;;;;;;23.33;14.15;;;8.00;99.90;;;;;;4997059;28;20391;-80
2022/04/25 05:07:10;;;;;;;27.13;14.30;;;8.00;99.90;;;;;;4997170;28;20046;-82
2022/04/25 05:09:35;;;;;;;29.52;14.40;;;8.10;99.90;;;;;;5013561;28;20125;-82
2022/04/25 05:12:01;;;;;;;24.17;14.02;;;8.10;99.90;;;;;;5014400;28;20117;-81
2022/04/25 05:14:26;;;;;;;27.50;14.57;;;8.10;99.90;;;;;;5013305;28;20440;-83
2022/04/25 05:16:52;;;;;;;28.20;14.70;;;8.20;99.90;;;;;;5013285;28;20108;-83
2022/04/25 05:19:18;;;;;;;28.60;14.23;;;8.30;99.90;;;;;;5013063;28;20126;-80
2022/04/25 05:21:43;;;;;;;27.90;14.18;;;8.30;99.90;;;;;;5013091;28;20132;-82
2022/04/25 05:24:09;;;;;;;21.80;13.00;;;8.30;99.90;;;;;;5013899;28;20126;-82
2022/04/25 05:26:35;;;;;;;25.63;12.82;;;8.30;99.90;;;;;;5014215;28;20057;-82
2022/04/25 05:29:01;;;;;;;24.23;13.00;;;8.40;99.90;;;;;;5013077;28;20048;-82
2022/04/25 05:31:26;;;;;;;25.98;13.52;;;8.40;99.90;;;;;;5013980;28;20037;-83
2022/04/25 05:33:52;;;;;;;23.83;13.18;;;8.50;99.90;;;;;;4996300;28;20496;-80
2022/04/25 05:36:18;;;;;;;25.35;12.45;;;8.50;99.90;;;;;;4995927;28;20390;-83
2022/04/25 05:38:43;;;;;;;25.55;11.38;;;8.50;99.90;;;;;;5014403;28;20069;-81
2022/04/25 05:41:10;;;;;;;21.27;11.27;;;8.50;99.90;;;;;;5012590;28;20440;-80
2022/04/25 05:43:39;;;;;;;22.55;12.18;;;8.50;99.90;;;;;;5012795;28;20053;-81
2022/04/25 05:46:06;;;;;;;22.42;12.18;;;8.50;99.90;;;;;;5012254;28;20052;-82
2022/04/25 05:54:00;;;;;;;20.35;11.48;;;8.50;99.90;;;;;;5013757;28;20124;-83
2022/04/25 05:56:26;;;;;;;20.95;10.90;;;8.50;99.90;;;;;;4995821;28;20137;-81
2022/04/25 05:58:52;;;;;;;19.42;11.18;;;8.50;99.90;;;;;;5012181;28;20042;-83
2022/04/25 06:01:18;;;;;;;22.77;11.25;;;8.60;99.90;;;;;;5011948;28;20045;-81
2022/04/25 06:03:43;;;;;;;19.35;10.98;;;8.50;99.90;;;;;;5013228;28;20117;-81
2022/04/25 06:06:09;;;;;;;18.13;10.85;;;8.60;99.90;;;;;;5012154;28;20033;-82
2022/04/25 06:08:35;;;;;;;22.02;10.48;;;8.60;99.90;;;;;;5027162;28;20049;-80
2022/04/25 06:11:02;;;;;;;22.02;10.98;;;8.70;99.90;;;;;;5029015;28;20041;-82
2022/04/25 06:13:28;;;;;;;19.58;9.85;;;8.60;99.90;;;;;;5014763;28;20037;-81
2022/04/25 06:15:53;;;;;;;20.35;10.52;;;8.60;99.90;;;;;;5012832;28;20042;-82
2022/04/25 06:18:19;;;;;;;19.38;10.52;;;8.60;99.90;;;;;;5012817;28;20144;-83
2022/04/25 06:20:45;;;;;;;18.40;9.45;;;8.60;99.90;;;;;;5012619;28;20038;-83
2022/04/25 06:23:10;;;;;;;18.67;10.05;;;8.60;99.90;;;;;;4996341;28;20079;-80
2022/04/25 06:25:37;;;;;;;16.38;9.02;;;8.60;99.90;;;;;;5013659;28;20393;-81
2022/04/25 06:28:03;;;;;;;18.38;9.40;;;8.50;99.90;;;;;;5012118;28;20056;-83
2022/04/25 06:30:29;;;;;;;20.25;9.75;;;8.50;99.90;;;;;;5011783;28;20050;-81
2022/04/25 06:32:59;;;;;;;19.02;8.77;;;8.50;99.90;;;;;;5011837;28;20046;-81
2022/04/25 06:35:26;;;;;;;16.00;9.05;;;8.40;99.90;;;;;;5011657;28;20057;-81
2022/04/25 06:37:51;;;;;;;20.60;11.02;;;8.40;99.90;;;;;;5012289;28;20446;-81
2022/04/25 06:40:18;;;;;;;19.55;10.18;;;8.40;99.90;;;;;;5012096;28;20120;-81
2022/04/25 06:42:45;;;;;;;15.27;9.07;;;8.40;99.90;;;;;;4995840;28;20462;-81
2022/04/25 06:45:11;;;;;;;16.83;10.10;;;8.40;99.90;;;;;;5013953;28;20366;-82
2022/04/25 06:47:36;;;;;;;19.35;9.85;;;8.50;99.90;;;;;;5013655;28;20096;-82
2022/04/25 06:50:02;;;;;;;15.68;10.32;;;8.50;99.90;;;;;;5012323;28;20101;-81
2022/04/25 06:52:28;;;;;;;18.52;9.52;;;8.50;99.90;;;;;;4995765;28;20034;-83
2022/04/25 06:54:54;;;;;;;16.60;9.40;;;8.60;99.90;;;;;;5012182;28;20041;-83
2022/04/25 06:57:19;;;;;;;16.23;9.65;;;8.60;99.90;;;;;;5011802;28;20050;-81
2022/04/25 06:59:45;;;;;;;18.60;8.98;;;8.70;99.90;;;;;;5013486;28;20042;-81
2022/04/25 07:02:11;;;;;;;17.20;9.00;;;8.70;99.90;;;;;;5015799;28;20038;-82
2022/04/25 07:04:37;;;;;;;17.10;9.15;;;8.70;99.90;;;;;;5015569;28;20042;-82
2022/04/25 07:07:03;;;;;;;18.80;10.25;;;8.80;99.90;;;;;;5016270;28;20508;-82
2022/04/25 07:09:29;;;;;;;18.05;9.13;;;8.80;99.90;;;;;;5016502;28;20096;-82
2022/04/25 07:11:54;;;;;;;17.15;9.60;;;8.90;99.90;;;;;;4998605;28;20466;-82
2022/04/25 07:14:23;;;;;;;14.10;9.00;;;8.90;99.90;;;;;;5016299;28;20100;-83
2022/04/25 07:16:51;;;;;;;15.75;9.40;;;8.90;99.90;;;;;;5014851;28;20046;-82
2022/04/25 07:19:17;;;;;;;17.27;9.20;;;9.00;99.90;;;;;;5014869;28;20434;-82
2022/04/25 07:29:55;;;;;;;17.10;8.48;;;9.10;99.90;;;;;;5014779;28;20397;-82
2022/04/25 07:32:21;;;;;;;15.95;9.82;;;9.00;99.90;;;;;;5015670;28;20045;-81
2022/04/25 07:34:47;;;;;;;15.75;9.30;;;9.00;99.90;;;;;;5015703;28;20041;-82
2022/04/25 07:37:17;;;;;;;17.73;9.05;;;9.00;99.90;;;;;;5014675;28;20056;-82
2022/04/25 07:39:45;;;;;;;15.50;9.50;;;9.00;99.90;;;;;;4999089;28;20124;-82
2022/04/25 07:42:12;;;;;;;15.50;8.57;;;9.10;99.90;;;;;;5016011;28;20064;-81
2022/04/25 07:44:37;;;;;;;13.82;8.55;;;9.10;99.90;;;;;;5014905;28;20504;-81
2022/04/25 07:47:05;;;;;;;15.13;9.07;;;9.00;99.90;;;;;;5014834;28;20041;-81
2022/04/25 07:49:33;;;;;;;15.95;9.00;;;9.00;99.90;;;;;;5016080;28;20042;-81
2022/04/25 07:51:59;;;;;;;16.42;9.25;;;9.00;99.90;;;;;;5014882;28;20046;-82
2022/04/25 07:54:25;;;;;;;15.70;9.35;;;9.10;99.90;;;;;;5014900;28;20054;-81
2022/04/25 07:56:51;;;;;;;14.63;8.70;;;9.10;99.90;;;;;;5014742;28;20104;-81
2022/04/25 07:59:17;;;;;;;17.63;8.85;;;9.10;99.90;;;;;;5014938;28;20502;-82
2022/04/25 08:01:43;;;;;;;15.68;7.90;;;9.10;99.90;;;;;;5015896;28;20037;-82
2022/04/25 08:04:09;;;;;;;14.30;8.27;;;9.10;99.90;;;;;;5014468;28;20490;-81
2022/04/25 08:06:35;;;;;;;14.00;8.45;;;9.10;99.90;;;;;;5014987;28;20050;-82
2022/04/25 08:09:03;;;;;;;15.65;8.38;;;9.10;99.90;;;;;;5014416;28;20141;-82
2022/04/25 08:11:29;;;;;;;18.08;9.10;;;9.00;99.90;;;;;;5013741;28;20038;-82
2022/04/25 08:19:24;;;;;;;22.35;10.38;;;9.00;99.90;;;;;;5015174;28;20041;-82
2022/04/25 08:21:50;;;;;;;17.95;9.75;;;9.00;99.90;;;;;;5014978;28;20389;-82
2022/04/25 08:24:15;;;;;;;18.35;9.75;;;9.00;99.90;;;;;;5013864;28;20034;-81
2022/04/25 08:26:41;;;;;;;16.35;10.15;;;9.00;99.90;;;;;;5013571;28;20065;-81
2022/04/25 08:29:07;;;;;;;18.88;10.00;;;9.00;99.90;;;;;;5015168;28;20390;-80
2022/04/25 08:31:35;;;;;;;17.70;9.85;;;9.00;99.90;;;;;;5015131;28;20033;-80
2022/04/25 08:34:02;;;;;;;17.42;10.15;;;9.00;99.90;;;;;;5014926;28;20041;-82
2022/04/25 08:36:29;;;;;;;20.17;10.30;;;9.00;99.90;;;;;;5014532;28;20050;-80
2022/04/25 08:38:54;;;;;;;21.95;10.88;;;9.00;99.90;;;;;;5014769;28;20049;-82
2022/04/25 08:41:24;;;;;;;19.02;10.23;;;9.10;99.90;;;;;;5013504;28;20496;-81
2022/04/25 08:43:53;;;;;;;19.08;10.63;;;9.10;99.90;;;;;;5013500;28;20048;-82
2022/04/25 08:46:21;;;;;;;23.38;11.15;;;9.20;99.90;;;;;;5015468;28;20041;-82
2022/04/25 08:48:49;;;;;;;20.00;10.55;;;9.20;99.90;;;;;;5015578;28;20121;-82
2022/04/25 08:51:16;;;;;;;23.35;11.10;;;9.20;99.90;;;;;;5014682;28;20095;-81
2022/04/25 08:53:43;;;;;;;24.23;11.50;;;9.20;99.90;;;;;;5013540;28;20046;-82
2022/04/25 08:56:10;;;;;;;17.80;10.02;;;9.20;99.90;;;;;;5014692;28;20042;-82
2022/04/25 08:58:39;;;;;;;22.08;11.18;;;9.20;99.90;;;;;;5013672;28;20096;-81
2022/04/25 09:01:05;;;;;;;20.33;10.82;;;9.20;99.90;;;;;;5014298;28;20485;-81
2022/04/25 09:03:30;;;;;;;22.60;11.32;;;9.20;99.90;;;;;;4996749;28;20122;-83
2022/04/25 09:05:58;;;;;;;17.65;10.15;;;9.20;99.90;;;;;;5012976;28;20041;-82
2022/04/25 09:08:23;;;;;;;18.63;9.98;;;9.20;99.90;;;;;;5013067;28;20121;-82
2022/04/25 09:10:51;;;;;;;23.70;10.00;;;9.30;99.90;;;;;;5013309;28;20113;-82
2022/04/25 09:13:16;;;;;;;14.30;9.55;;;9.30;99.90;;;;;;5012788;28;20038;-82
2022/04/25 09:15:42;;;;;;;18.80;9.65;;;9.30;99.90;;;;;;5012708;28;20096;-81
2022/04/25 09:18:09;;;;;;;17.70;9.25;;;9.40;99.90;;;;;;4996668;28;20499;-82
2022/04/25 09:20:35;;;;;;;19.52;10.40;;;9.40;99.90;;;;;;4997042;28;20081;-82
2022/04/25 09:23:00;;;;;;;17.13;9.80;;;9.40;99.90;;;;;;5013908;28;20528;-82
2022/04/25 09:25:26;;;;;;;20.65;10.90;;;9.40;99.90;;;;;;4997044;28;20050;-81
2022/04/25 09:28:13;;;;;;;17.25;10.30;;;9.30;99.90;;;;;;5013420;28;20173;-82
2022/04/25 09:30:39;;;;;;;18.70;10.77;;;9.30;99.90;;;;;;5014798;28;20490;-83
2022/04/25 09:33:22;;;;;;;16.65;10.15;;;9.30;99.90;;;;;;5014335;28;20068;-82
2022/04/25 09:35:53;;;;;;;18.52;10.02;;;9.30;99.90;;;;;;5013168;28;20038;-81
2022/04/25 09:38:32;;;;;;;23.65;11.02;;;9.20;99.90;;;;;;5013061;28;20048;-81
2022/04/25 09:40:59;;;;;;;23.27;10.60;;;9.20;99.90;;;;;;5012256;28;20056;-82
2022/04/25 09:43:35;;;;;;;20.05;11.30;;;9.20;99.90;;;;;;5013101;28;20043;-81
2022/04/25 09:46:03;;;;;;;20.48;11.02;;;9.30;99.90;;;;;;5013933;28;20042;-82
2022/04/25 09:48:29;;;;;;;17.60;10.52;;;9.20;99.90;;;;;;5013865;28;20502;-81
2022/04/25 09:51:04;;;;;;;21.55;11.65;;;9.30;99.90;;;;;;5012542;28;20052;-81
2022/04/25 09:53:49;;;;;;;18.73;11.07;;;9.30;99.90;;;;;;5012243;28;20038;-82
2022/04/25 09:56:26;;;;;;;17.90;10.52;;;9.30;99.90;;;;;;5012218;28;20419;-81
2022/04/25 09:59:05;;;;;;;22.85;10.48;;;9.30;99.90;;;;;;5013390;28;20038;-82
2022/04/25 10:01:35;;;;;;;18.05;10.27;;;9.30;99.90;;;;;;5012902;28;20046;-80
2022/04/25 10:04:02;;;;;;;20.25;10.60;;;9.40;99.90;;;;;;4997017;28;20045;-82
2022/04/25 10:06:34;;;;;;;17.63;10.65;;;9.50;99.90;;;;;;5012918;28;20046;-80
2022/04/25 10:09:06;;;;;;;14.63;9.55;;;9.60;99.90;;;;;;5013021;28;20050;-80
2022/04/25 10:11:39;;;;;;;17.30;10.15;;;9.70;99.90;;;;;;4996355;28;20050;-81
2022/04/25 10:14:05;;;;;;;17.35;9.35;;;9.70;99.90;;;;;;5012810;28;20045;-82
2022/04/25 10:16:34;;;;;;;16.67;9.30;;;9.70;99.90;;;;;;5012902;28;20048;-83
2022/04/25 10:18:59;;;;;;;16.23;9.02;;;9.70;99.90;;;;;;5013791;28;20042;-83
2022/04/25 10:21:29;;;;;;;20.45;9.45;;;9.60;99.90;;;;;;4995956;28;20077;-83
2022/04/25 10:23:57;;;;;;;14.32;9.35;;;9.60;99.90;;;;;;5012977;28;20046;-83
2022/04/25 10:26:27;;;;;;;17.48;8.93;;;9.60;99.90;;;;;;5012924;28;20050;-82
2022/04/25 10:28:59;;;;;;;16.75;8.73;;;9.50;99.90;;;;;;5012737;28;20050;-82
2022/04/25 10:31:28;;;;;;;15.73;8.73;;;9.50;99.90;;;;;;5012601;28;20065;-83
2022/04/25 10:34:02;;;;;;;14.90;9.63;;;9.50;99.90;;;;;;5014402;28;20088;-84
2022/04/25 10:36:37;;;;;;;16.48;8.77;;;9.50;99.90;;;;;;5017939;28;20046;-82
2022/04/25 10:39:18;;;;;;;13.37;8.10;;;9.60;99.90;;;;;;4999979;28;20457;-82
2022/04/25 10:44:37;;;;;;;17.20;8.50;;;9.60;99.90;;;;;;5023987;28;20042;-81
2022/04/25 10:47:05;;;;;;;15.25;8.63;;;9.60;99.90;;;;;;5005832;28;20133;-81
2022/04/25 10:49:44;;;;;;;12.73;7.80;;;9.60;99.90;;;;;;5028730;28;20052;-82
2022/04/25 10:52:42;;;;;;;14.32;8.00;;;9.60;99.90;;;;;;5016480;28;20045;-82
2022/04/25 10:55:29;;;;;;;17.75;8.68;;;9.50;99.90;;;;;;5015793;28;20046;-83
2022/04/25 10:58:04;;;;;;;13.57;8.40;;;9.60;99.90;;;;;;4999626;28;20046;-84
2022/04/25 11:00:39;;;;;;;15.52;8.75;;;9.50;99.90;;;;;;4998968;28;20128;-83
2022/04/25 11:03:15;;;;;;;15.57;8.48;;;9.50;99.90;;;;;;5015585;28;20062;-82
2022/04/25 11:05:48;;;;;;;15.32;8.77;;;9.50;99.90;;;;;;5015393;28;20515;-81
2022/04/25 11:08:20;;;;;;;15.55;8.88;;;9.40;99.90;;;;;;4999813;28;20137;-83
2022/04/25 11:10:48;;;;;;;14.75;9.27;;;9.40;99.90;;;;;;5016130;28;20053;-83
2022/04/25 11:13:16;;;;;;;14.57;8.52;;;9.40;99.90;;;;;;5017353;28;20060;-83
2022/04/25 11:15:49;;;;;;;16.98;8.18;;;9.40;99.90;;;;;;5017177;28;20094;-84
2022/04/25 11:18:43;;;;;;;16.13;9.95;;;9.40;99.90;;;;;;5017340;28;20040;-83
2022/04/25 11:21:30;;;;;;;16.27;9.23;;;9.40;99.90;;;;;;5015330;28;20524;-83
2022/04/25 11:23:57;;;;;;;16.08;9.25;;;9.30;99.90;;;;;;5015828;28;20042;-83
2022/04/25 11:26:22;;;;;;;15.32;9.25;;;9.40;99.90;;;;;;5015713;28;20081;-84
2022/04/25 11:28:54;;;;;;;15.55;9.30;;;9.40;99.90;;;;;;5015659;28;20510;-83
2022/04/25 11:31:23;;;;;;;15.68;8.93;;;9.40;99.90;;;;;;5015665;28;20125;-82
2022/04/25 11:33:51;;;;;;;17.15;9.80;;;9.30;99.90;;;;;;5015635;28;20045;-84
2022/04/25 11:36:21;;;;;;;16.73;9.57;;;9.30;99.90;;;;;;5015509;28;20064;-83
2022/04/25 11:41:34;;;;;;;17.40;10.05;;;9.30;99.90;;;;;;5016632;28;20050;-83
2022/04/25 11:44:01;;;;;;;17.60;9.30;;;9.40;99.90;;;;;;5014826;28;20042;-84
2022/04/25 11:46:28;;;;;;;15.20;10.45;;;9.50;99.90;;;;;;5014045;28;20485;-82
2022/04/25 11:48:54;;;;;;;17.55;9.82;;;9.70;99.90;;;;;;5015662;28;20493;-84
2022/04/25 11:51:38;;;;;;;16.38;9.35;;;9.80;99.90;;;;;;5015687;28;20073;-83
2022/04/25 11:54:05;;;;;;;17.58;10.27;;;10.00;99.90;;;;;;5015537;28;20482;-84
2022/04/25 11:56:35;;;;;;;16.80;9.43;;;10.20;99.90;;;;;;5014208;28;20092;-82
2022/04/25 11:59:07;;;;;;;15.65;8.85;;;10.50;99.90;;;;;;5014173;28;20034;-84
2022/04/25 12:01:41;;;;;;;17.73;9.45;;;10.70;99.90;;;;;;5014983;28;20038;-81
2022/04/25 12:04:22;;;;;;;12.68;7.63;;;11.00;99.90;;;;;;5014082;28;20045;-83
2022/04/25 12:06:59;;;;;;;13.70;8.27;;;11.20;99.90;;;;;;5013930;28;20045;-82
2022/04/25 12:17:52;;;;;;;12.80;7.32;;;13.00;99.90;;;;;;5015396;28;20484;-81
2022/04/25 12:20:29;;;;;;;12.85;8.25;;;13.20;99.90;;;;;;5013773;28;20060;-81
2022/04/25 12:22:59;;;;;;;10.23;7.40;;;13.40;99.90;;;;;;5013547;28;20046;-83
2022/04/25 12:25:30;;;;;;;11.45;7.30;;;13.70;99.90;;;;;;5013531;28;20046;-81
2022/04/25 12:28:18;;;;;;;11.45;7.47;;;14.10;99.90;;;;;;5014954;28;20041;-83
2022/04/25 12:30:51;;;;;;;14.60;7.72;;;14.30;99.90;;;;;;5013427;28;20037;-83
2022/04/25 12:33:19;;;;;;;11.70;7.30;;;14.30;99.90;;;;;;5013623;28;20042;-83
2022/04/25 12:35:46;;;;;;;13.30;6.88;;;14.30;99.90;;;;;;5014856;28;20119;-82
2022/04/25 12:38:33;;;;;;;18.77;8.25;;;14.40;99.90;;;;;;4997455;28;20382;-82
2022/04/25 12:40:59;;;;;;;14.82;7.45;;;14.40;99.90;;;;;;5013474;28;20046;-82
2022/04/25 12:43:45;;;;;;;23.50;7.65;;;14.50;99.90;;;;;;5014624;28;20390;-84
2022/04/25 12:46:13;;;;;;;16.63;6.82;;;14.40;99.90;;;;;;5013157;28;20120;-82
2022/04/25 12:48:59;;;;;;;12.75;7.10;;;14.40;99.90;;;;;;5014234;28;20091;-82
2022/04/25 12:51:34;;;;;;;24.70;7.35;;;14.50;99.90;;;;;;5015326;28;20092;-81
2022/04/25 12:54:01;;;;;;;24.33;7.07;;;14.60;99.90;;;;;;5014174;28;20041;-81
2022/04/25 12:56:32;;;;;;;22.85;6.80;;;14.60;99.90;;;;;;5013844;28;20052;-82
2022/04/25 12:58:59;;;;;;;18.85;7.28;;;14.80;99.90;;;;;;5014494;28;20042;-81
2022/04/25 13:01:29;;;;;;;25.55;7.88;;;14.80;99.90;;;;;;4997510;28;20505;-82
2022/04/25 13:04:05;;;;;;;13.70;7.10;;;14.90;99.90;;;;;;5015287;28;20536;-82
2022/04/25 13:06:30;;;;;;;24.52;7.65;;;15.00;99.90;;;;;;5013581;28;20486;-81
2022/04/25 13:08:56;;;;;;;22.25;7.05;;;15.00;99.90;;;;;;5015166;28;20045;-83
2022/04/25 13:11:22;;;;;;;18.90;6.63;;;15.00;99.90;;;;;;5013673;28;20093;-82
2022/04/25 13:13:48;;;;;;;32.08;8.68;;;15.00;99.90;;;;;;5013625;28;20073;-81
2022/04/25 13:16:14;;;;;;;17.67;6.97;;;15.10;99.90;;;;;;5013700;28;20455;-82
2022/04/25 13:18:39;;;;;;;12.90;6.50;;;15.00;99.90;;;;;;5013751;28;20081;-81
2022/04/25 13:21:05;;;;;;;9.55;6.50;;;15.10;99.90;;;;;;5014526;28;20041;-82
2022/04/25 13:23:30;;;;;;;12.85;6.35;;;15.10;99.90;;;;;;5013453;28;20478;-82
2022/04/25 13:25:56;;;;;;;9.25;6.10;;;15.20;99.90;;;;;;4997405;28;20481;-82
2022/04/25 13:28:22;;;;;;;10.15;6.20;;;15.20;99.90;;;;;;5013777;28;20046;-81
2022/04/25 13:30:51;;;;;;;11.55;6.30;;;15.30;99.90;;;;;;5014392;28;20046;-83
2022/04/25 13:33:17;;;;;;;12.07;6.65;;;15.30;99.90;;;;;;5013505;28;20494;-82
2022/04/25 13:35:43;;;;;;;12.73;6.65;;;15.30;99.90;;;;;;5012599;28;20049;-83
2022/04/25 13:38:08;;;;;;;8.00;5.70;;;15.20;99.90;;;;;;5012773;28;20481;-82
2022/04/25 13:40:34;;;;;;;11.10;5.97;;;15.10;99.90;;;;;;5012481;28;20080;-82
2022/04/25 13:42:59;;;;;;;9.95;6.38;;;15.00;99.90;;;;;;5012677;28;20065;-81
2022/04/25 13:45:25;;;;;;;8.95;5.68;;;14.90;99.90;;;;;;5012399;28;20034;-81
2022/04/25 13:47:51;;;;;;;13.15;6.30;;;14.70;99.90;;;;;;5012195;28;20046;-81
2022/04/25 13:50:16;;;;;;;12.77;6.75;;;14.70;99.90;;;;;;5013576;28;20045;-82
2022/04/25 13:52:42;;;;;;;12.00;6.30;;;14.50;99.90;;;;;;5012566;28;20092;-82
2022/04/25 13:55:08;;;;;;;9.45;6.55;;;14.50;99.90;;;;;;5013015;28;20037;-83
2022/04/25 13:57:33;;;;;;;10.35;6.07;;;14.40;99.90;;;;;;5012098;28;20117;-81
2022/04/25 13:59:59;;;;;;;10.63;6.60;;;14.40;99.90;;;;;;5012122;28;20038;-81
2022/04/25 14:05:09;;;;;;;10.85;6.47;;;14.30;99.90;;;;;;5013967;28;20406;-83
2022/04/25 14:07:34;;;;;;;13.30;6.70;;;14.30;99.90;;;;;;5011935;28;20056;-83
2022/04/25 14:10:01;;;;;;;10.07;6.30;;;14.20;99.90;;;;;;5016978;28;20030;-81
2022/04/25 14:12:27;;;;;;;12.30;6.32;;;14.10;99.90;;;;;;5016685;28;20068;-84
2022/04/25 14:14:52;;;;;;;10.07;6.35;;;14.00;99.90;;;;;;5017091;28;20473;-83
2022/04/25 14:17:19;;;;;;;9.95;6.40;;;13.90;99.90;;;;;;5017019;28;20179;-83
2022/04/25 14:19:45;;;;;;;11.82;6.55;;;13.80;99.90;;;;;;5018111;28;20049;-81
2022/04/25 14:22:10;;;;;;;10.38;7.07;;;13.80;99.90;;;;;;5016723;28;20048;-83
2022/04/25 14:24:36;;;;;;;9.38;6.00;;;13.60;99.90;;;;;;5017869;28;20038;-81
2022/04/25 14:27:02;;;;;;;10.45;6.70;;;13.60;99.90;;;;;;5018365;28;20097;-82
2022/04/25 14:29:28;;;;;;;12.23;6.90;;;13.50;99.90;;;;;;5016583;28;20044;-83
2022/04/25 14:31:54;;;;;;;13.43;6.78;;;13.50;99.90;;;;;;5016838;28;20437;-83
2022/04/25 14:34:19;;;;;;;13.73;6.75;;;13.50;99.90;;;;;;5016167;28;20474;-82
2022/04/25 14:36:45;;;;;;;17.58;7.05;;;13.50;99.90;;;;;;5016422;28;20046;-81
2022/04/25 14:39:10;;;;;;;12.27;6.95;;;13.50;99.90;;;;;;5016639;28;20394;-81
2022/04/25 14:41:36;;;;;;;12.05;7.15;;;13.40;99.90;;;;;;5017989;28;20108;-81
2022/04/25 14:44:02;;;;;;;10.68;6.43;;;13.40;99.90;;;;;;5015853;28;20046;-82
2022/04/25 14:46:27;;;;;;;12.93;7.32;;;13.40;99.90;;;;;;5015691;28;20049;-82
2022/04/25 14:48:53;;;;;;;12.60;6.72;;;13.40;99.90;;;;;;5015651;28;20049;-82
2022/04/25 14:54:22;;;;;;;11.93;6.63;;;13.40;99.90;;;;;;4979482;28;20394;-83
2022/04/25 14:56:52;;;;;;;11.25;6.80;;;13.40;99.90;;;;;;5016268;28;20402;-82
2022/04/25 14:59:20;;;;;;;9.38;6.20;;;13.40;99.90;;;;;;5016077;28;20184;-81
2022/04/25 15:01:47;;;;;;;11.90;6.70;;;13.40;99.90;;;;;;5015703;28;20091;-82
2022/04/25 15:04:13;;;;;;;11.80;6.75;;;13.30;99.90;;;;;;5017115;28;20046;-82
2022/04/25 15:06:39;;;;;;;10.13;6.72;;;13.20;99.90;;;;;;5016385;28;20402;-82
2022/04/25 15:09:05;;;;;;;13.43;6.68;;;13.20;99.90;;;;;;5015669;28;20129;-81
2022/04/25 15:11:31;;;;;;;12.00;6.65;;;13.20;99.90;;;;;;4999375;28;20088;-80
2022/04/25 15:13:56;;;;;;;11.50;7.18;;;13.10;99.90;;;;;;5015678;28;20119;-81
2022/04/25 15:16:22;;;;;;;13.48;6.63;;;13.10;99.90;;;;;;5015753;28;20045;-82
2022/04/25 15:18:47;;;;;;;12.48;6.70;;;13.10;99.90;;;;;;5015381;28;20092;-82
2022/04/25 15:21:14;;;;;;;11.73;6.93;;;13.10;99.90;;;;;;5014108;28;20046;-82
2022/04/25 15:23:40;;;;;;;13.38;7.32;;;13.00;99.90;;;;;;5015406;28;20088;-82
2022/04/25 15:26:09;;;;;;;14.07;7.20;;;13.10;99.90;;;;;;5016044;28;20046;-83
2022/04/25 15:28:35;;;;;;;10.98;6.68;;;13.10;99.90;;;;;;5015521;28;20053;-80
2022/04/25 15:31:00;;;;;;;10.25;6.65;;;13.10;99.90;;;;;;5014796;28;20125;-81
2022/04/25 15:33:26;;;;;;;11.68;6.50;;;13.10;99.90;;;;;;5014756;28;20081;-82
2022/04/25 15:35:52;;;;;;;13.48;7.15;;;13.10;99.90;;;;;;5015258;28;20053;-82
2022/04/25 15:38:17;;;;;;;12.88;7.35;;;13.10;99.90;;;;;;5016832;28;20080;-82
2022/04/25 15:40:43;;;;;;;14.32;7.38;;;13.10;99.90;;;;;;5015614;28;20100;-81
2022/04/25 15:43:09;;;;;;;12.40;7.38;;;13.10;99.90;;;;;;5015929;28;20053;-82
2022/04/25 15:45:39;;;;;;;11.27;7.18;;;13.10;99.90;;;;;;5025859;28;20128;-79
2022/04/25 15:48:05;;;;;;;14.65;7.30;;;13.10;99.90;;;;;;5031763;28;20053;-80
2022/04/25 15:50:31;;;;;;;13.07;7.20;;;13.10;99.90;;;;;;5020976;28;20478;-80
2022/04/25 15:52:57;;;;;;;12.38;6.50;;;13.10;99.90;;;;;;5021900;28;20069;-82
2022/04/25 15:58:07;;;;;;;10.82;6.53;;;13.10;99.90;;;;;;5016579;28;20401;-80
2022/04/25 16:00:32;;;;;;;9.32;6.10;;;13.00;99.90;;;;;;5014903;28;20052;-82
2022/04/25 16:02:58;;;;;;;9.32;6.43;;;13.10;99.90;;;;;;5014146;28;20038;-81
2022/04/25 16:05:24;;;;;;;10.02;6.32;;;13.00;99.90;;;;;;5015683;28;20114;-83
2022/04/25 16:07:50;;;;;;;12.93;6.10;;;13.10;99.90;;;;;;4997880;28;20042;-80
2022/04/25 16:10:16;;;;;;;15.20;6.57;;;13.10;99.90;;;;;;4998280;28;20045;-82
2022/04/25 16:12:46;;;;;;;8.82;5.78;;;13.10;99.90;;;;;;4998559;28;20080;-82
2022/04/25 16:15:11;;;;;;;12.35;5.85;;;13.10;99.90;;;;;;5014606;28;20084;-83
2022/04/25 16:17:38;;;;;;;10.55;6.00;;;13.10;99.90;;;;;;5013717;28;20436;-81
2022/04/25 16:20:05;;;;;;;10.23;6.40;;;13.10;99.90;;;;;;5014100;28;20042;-80
2022/04/25 16:22:31;;;;;;;11.15;5.20;;;13.20;99.90;;;;;;5014538;28;20041;-81
2022/04/25 16:24:58;;;;;;;8.52;5.05;;;13.20;99.90;;;;;;5015476;28;20546;-81
2022/04/25 16:27:24;;;;;;;9.23;5.03;;;13.20;99.90;;;;;;5014026;28;20046;-79
2022/04/25 16:29:49;;;;;;;10.40;5.03;;;13.20;99.90;;;;;;5014225;28;20041;-80
2022/04/25 16:32:18;;;;;;;10.05;4.43;;;13.20;99.90;;;;;;5014129;28;20061;-80